sensor_id;sensor_type;location;lat;lon;timestamp;pressure;altitude;pressure_sealevel;temperature;humidity
40612;BME280;26317;44.894;20.286;2023-05-19T00:00:04;101279.50;;;13.44;100.00
40612;BME280;26317;44.894;20.286;2023-05-19T00:02:50;101278.69;;;13.53;100.00
40612;BME280;26317;44.894;20.286;2023-05-19T00:05:42;101273.28;;;13.53;100.00
40612;BME280;26317;44.894;20.286;2023-05-19T00:08:27;101281.91;;;13.55;100.00
40612;BME280;26317;44.894;20.286;2023-05-19T00:11:10;101275.16;;;13.53;100.00
40612;BME280;26317;44.894;20.286;2023-05-19T00:13:54;101270.59;;;13.53;100.00
40612;BME280;26317;44.894;20.286;2023-05-19T00:16:34;101274.91;;;13.54;100.00
40612;BME280;26317;44.894;20.286;2023-05-19T00:19:17;101263.06;;;13.55;100.00
40612;BME280;26317;44.894;20.286;2023-05-19T00:21:59;101258.22;;;13.52;100.00
40612;BME280;26317;44.894;20.286;2023-05-19T00:24:40;101255.78;;;13.56;100.00
40612;BME280;26317;44.894;20.286;2023-05-19T00:27:21;101267.09;;;13.53;100.00
40612;BME280;26317;44.894;20.286;2023-05-19T00:30:10;101260.91;;;13.52;100.00
40612;BME280;26317;44.894;20.286;2023-05-19T00:32:54;101259.56;;;13.45;100.00
40612;BME280;26317;44.894;20.286;2023-05-19T00:35:45;101252.81;;;13.47;100.00
40612;BME280;26317;44.894;20.286;2023-05-19T00:38:22;101256.34;;;13.48;100.00
40612;BME280;26317;44.894;20.286;2023-05-19T00:40:57;101251.97;;;13.57;100.00
40612;BME280;26317;44.894;20.286;2023-05-19T00:43:36;101245.00;;;13.46;100.00
40612;BME280;26317;44.894;20.286;2023-05-19T00:46:14;101243.94;;;13.36;100.00
40612;BME280;26317;44.894;20.286;2023-05-19T00:48:54;101255.25;;;13.44;100.00
40612;BME280;26317;44.894;20.286;2023-05-19T00:51:31;101256.59;;;13.41;100.00
40612;BME280;26317;44.894;20.286;2023-05-19T00:54:18;101259.28;;;13.41;100.00
40612;BME280;26317;44.894;20.286;2023-05-19T00:56:56;101256.59;;;13.46;100.00
40612;BME280;26317;44.894;20.286;2023-05-19T00:59:41;101250.13;;;13.52;100.00
40612;BME280;26317;44.894;20.286;2023-05-19T01:02:20;101261.69;;;13.58;100.00
40612;BME280;26317;44.894;20.286;2023-05-19T01:05:04;101258.47;;;13.61;100.00
40612;BME280;26317;44.894;20.286;2023-05-19T01:07:46;101263.81;;;13.66;100.00
40612;BME280;26317;44.894;20.286;2023-05-19T01:10:28;101261.44;;;13.64;100.00
40612;BME280;26317;44.894;20.286;2023-05-19T01:13:23;101245.78;;;13.61;100.00
40612;BME280;26317;44.894;20.286;2023-05-19T01:16:09;101236.63;;;13.57;100.00
40612;BME280;26317;44.894;20.286;2023-05-19T01:18:59;101246.56;;;13.67;100.00
40612;BME280;26317;44.894;20.286;2023-05-19T01:22:13;101245.75;;;13.71;100.00
40612;BME280;26317;44.894;20.286;2023-05-19T01:28:32;101247.91;;;13.74;100.00
40612;BME280;26317;44.894;20.286;2023-05-19T01:31:18;101245.19;;;13.74;100.00
40612;BME280;26317;44.894;20.286;2023-05-19T01:34:02;101241.44;;;13.75;100.00
40612;BME280;26317;44.894;20.286;2023-05-19T01:36:45;101242.50;;;13.74;100.00
40612;BME280;26317;44.894;20.286;2023-05-19T01:39:27;101245.75;;;13.76;100.00
40612;BME280;26317;44.894;20.286;2023-05-19T01:42:01;101240.88;;;13.78;100.00
40612;BME280;26317;44.894;20.286;2023-05-19T01:44:41;101242.50;;;13.85;100.00
40612;BME280;26317;44.894;20.286;2023-05-19T01:47:24;101245.19;;;13.90;100.00
40612;BME280;26317;44.894;20.286;2023-05-19T01:50:09;101248.38;;;13.92;100.00
40612;BME280;26317;44.894;20.286;2023-05-19T01:52:46;101253.22;;;13.95;100.00
40612;BME280;26317;44.894;20.286;2023-05-19T01:55:20;101249.69;;;13.99;100.00
40612;BME280;26317;44.894;20.286;2023-05-19T01:58:14;101245.69;;;13.97;100.00
40612;BME280;26317;44.894;20.286;2023-05-19T02:01:06;101226.25;;;13.95;100.00
40612;BME280;26317;44.894;20.286;2023-05-19T02:04:02;101237.56;;;14.02;100.00
40612;BME280;26317;44.894;20.286;2023-05-19T02:07:00;101236.75;;;14.01;100.00
40612;BME280;26317;44.894;20.286;2023-05-19T02:09:43;101226.25;;;13.95;100.00
40612;BME280;26317;44.894;20.286;2023-05-19T02:12:35;101233.28;;;13.96;100.00
40612;BME280;26317;44.894;20.286;2023-05-19T02:15:23;101238.41;;;13.97;100.00
40612;BME280;26317;44.894;20.286;2023-05-19T02:18:08;101239.22;;;13.98;100.00
40612;BME280;26317;44.894;20.286;2023-05-19T02:21:00;101217.94;;;13.86;100.00
40612;BME280;26317;44.894;20.286;2023-05-19T02:23:38;101242.69;;;14.03;100.00
40612;BME280;26317;44.894;20.286;2023-05-19T02:26:25;101244.84;;;14.06;100.00
40612;BME280;26317;44.894;20.286;2023-05-19T02:29:14;101243.47;;;14.09;100.00
40612;BME280;26317;44.894;20.286;2023-05-19T02:31:51;101245.91;;;14.10;100.00
40612;BME280;26317;44.894;20.286;2023-05-19T02:34:32;101248.06;;;14.08;100.00
40612;BME280;26317;44.894;20.286;2023-05-19T02:37:20;101248.06;;;14.08;100.00
40612;BME280;26317;44.894;20.286;2023-05-19T02:39:57;101241.03;;;14.07;100.00
40612;BME280;26317;44.894;20.286;2023-05-19T02:42:38;101241.34;;;14.06;100.00
40612;BME280;26317;44.894;20.286;2023-05-19T02:45:18;101246.72;;;14.11;100.00
40612;BME280;26317;44.894;20.286;2023-05-19T02:47:54;101236.19;;;14.09;100.00
40612;BME280;26317;44.894;20.286;2023-05-19T02:50:30;101230.28;;;14.02;100.00
40612;BME280;26317;44.894;20.286;2023-05-19T02:53:11;101233.25;;;14.01;100.00
40612;BME280;26317;44.894;20.286;2023-05-19T02:55:54;101227.88;;;13.96;100.00
40612;BME280;26317;44.894;20.286;2023-05-19T02:58:33;101203.94;;;13.79;100.00
40612;BME280;26317;44.894;20.286;2023-05-19T03:01:10;101221.97;;;13.89;100.00
40612;BME280;26317;44.894;20.286;2023-05-19T03:03:47;101223.63;;;13.85;100.00
40612;BME280;26317;44.894;20.286;2023-05-19T03:06:23;101227.41;;;13.78;100.00
40612;BME280;26317;44.894;20.286;2023-05-19T03:09:04;101201.06;;;13.55;100.00
40612;BME280;26317;44.894;20.286;2023-05-19T03:11:45;101228.00;;;13.60;100.00
40612;BME280;26317;44.894;20.286;2023-05-19T03:14:23;101215.34;;;13.51;100.00
40612;BME280;26317;44.894;20.286;2023-05-19T03:17:07;101209.72;;;13.47;100.00
40612;BME280;26317;44.894;20.286;2023-05-19T03:19:46;101205.13;;;13.38;100.00
40612;BME280;26317;44.894;20.286;2023-05-19T03:22:32;101226.13;;;13.41;100.00
40612;BME280;26317;44.894;20.286;2023-05-19T03:25:15;101226.69;;;13.32;100.00
40612;BME280;26317;44.894;20.286;2023-05-19T03:27:47;101226.44;;;13.34;100.00
40612;BME280;26317;44.894;20.286;2023-05-19T03:30:21;101235.59;;;13.33;100.00
40612;BME280;26317;44.894;20.286;2023-05-19T03:33:19;101232.38;;;13.31;100.00
40612;BME280;26317;44.894;20.286;2023-05-19T03:35:56;101239.91;;;13.29;100.00
40612;BME280;26317;44.894;20.286;2023-05-19T03:38:38;101245.56;;;13.32;100.00
40612;BME280;26317;44.894;20.286;2023-05-19T03:41:20;101256.59;;;13.36;100.00
40612;BME280;26317;44.894;20.286;2023-05-19T03:44:03;101269.25;;;13.41;100.00
40612;BME280;26317;44.894;20.286;2023-05-19T03:46:39;101268.19;;;13.47;100.00
40612;BME280;26317;44.894;20.286;2023-05-19T03:49:42;101262.25;;;13.50;100.00
40612;BME280;26317;44.894;20.286;2023-05-19T03:52:52;101253.38;;;13.39;100.00
40612;BME280;26317;44.894;20.286;2023-05-19T03:55:36;101251.50;;;13.40;100.00
40612;BME280;26317;44.894;20.286;2023-05-19T03:58:18;101251.25;;;13.31;100.00
40612;BME280;26317;44.894;20.286;2023-05-19T04:00:56;101249.06;;;13.28;100.00
40612;BME280;26317;44.894;20.286;2023-05-19T04:03:29;101257.69;;;13.25;100.00
40612;BME280;26317;44.894;20.286;2023-05-19T04:06:08;101260.38;;;13.30;100.00
40612;BME280;26317;44.894;20.286;2023-05-19T04:08:50;101268.72;;;13.28;100.00
40612;BME280;26317;44.894;20.286;2023-05-19T04:11:32;101255.53;;;13.32;100.00
40612;BME280;26317;44.894;20.286;2023-05-19T04:14:12;101243.41;;;13.24;100.00
40612;BME280;26317;44.894;20.286;2023-05-19T04:16:51;101240.47;;;13.26;100.00
40612;BME280;26317;44.894;20.286;2023-05-19T04:19:29;101254.19;;;13.40;100.00
40612;BME280;26317;44.894;20.286;2023-05-19T04:22:16;101250.69;;;13.39;100.00
40612;BME280;26317;44.894;20.286;2023-05-19T04:24:57;101259.28;;;13.36;100.00
40612;BME280;26317;44.894;20.286;2023-05-19T04:27:35;101218.88;;;12.96;100.00
40612;BME280;26317;44.894;20.286;2023-05-19T04:30:24;101259.31;;;13.21;100.00
40612;BME280;26317;44.894;20.286;2023-05-19T04:33:00;101265.22;;;13.28;100.00
40612;BME280;26317;44.894;20.286;2023-05-19T04:35:41;101242.88;;;13.17;100.00
40612;BME280;26317;44.894;20.286;2023-05-19T04:38:18;101262.28;;;13.34;100.00
40612;BME280;26317;44.894;20.286;2023-05-19T04:41:05;101267.41;;;13.31;100.00
40612;BME280;26317;44.894;20.286;2023-05-19T04:43:45;101270.63;;;13.33;100.00
40612;BME280;26317;44.894;20.286;2023-05-19T04:46:29;101273.88;;;13.30;100.00
40612;BME280;26317;44.894;20.286;2023-05-19T04:49:12;101273.84;;;13.40;100.00
40612;BME280;26317;44.894;20.286;2023-05-19T04:51:55;101267.13;;;13.38;100.00
40612;BME280;26317;44.894;20.286;2023-05-19T04:54:36;101264.69;;;13.41;100.00
40612;BME280;26317;44.894;20.286;2023-05-19T04:57:24;101263.88;;;13.41;100.00
40612;BME280;26317;44.894;20.286;2023-05-19T05:00:01;101286.78;;;13.48;100.00
40612;BME280;26317;44.894;20.286;2023-05-19T05:03:08;101290.53;;;13.57;100.00
40612;BME280;26317;44.894;20.286;2023-05-19T05:05:49;101255.53;;;13.42;100.00
40612;BME280;26317;44.894;20.286;2023-05-19T05:08:27;101293.47;;;13.66;100.00
40612;BME280;26317;44.894;20.286;2023-05-19T05:11:34;101297.00;;;13.66;100.00
40612;BME280;26317;44.894;20.286;2023-05-19T05:14:27;101287.31;;;13.55;100.00
40612;BME280;26317;44.894;20.286;2023-05-19T05:17:04;101299.16;;;13.64;100.00
40612;BME280;26317;44.894;20.286;2023-05-19T05:19:52;101273.31;;;13.48;100.00
40612;BME280;26317;44.894;20.286;2023-05-19T05:22:32;101291.34;;;13.53;100.00
40612;BME280;26317;44.894;20.286;2023-05-19T05:25:15;101292.16;;;13.58;100.00
40612;BME280;26317;44.894;20.286;2023-05-19T05:27:59;101305.63;;;13.63;100.00
40612;BME280;26317;44.894;20.286;2023-05-19T05:30:39;101305.06;;;13.71;100.00
40612;BME280;26317;44.894;20.286;2023-05-19T05:33:29;101299.13;;;13.69;100.00
40612;BME280;26317;44.894;20.286;2023-05-19T05:36:11;101318.56;;;13.76;100.00
40612;BME280;26317;44.894;20.286;2023-05-19T05:38:55;101313.41;;;13.80;100.00
40612;BME280;26317;44.894;20.286;2023-05-19T05:41:34;101267.38;;;13.56;100.00
40612;BME280;26317;44.894;20.286;2023-05-19T05:44:18;101300.19;;;13.78;100.00
40612;BME280;26317;44.894;20.286;2023-05-19T05:47:17;101276.25;;;13.62;100.00
40612;BME280;26317;44.894;20.286;2023-05-19T05:50:08;101307.22;;;13.74;100.00
40612;BME280;26317;44.894;20.286;2023-05-19T05:53:00;101317.44;;;13.82;100.00
40612;BME280;26317;44.894;20.286;2023-05-19T05:55:42;101282.69;;;13.66;100.00
40612;BME280;26317;44.894;20.286;2023-05-19T05:58:19;101283.25;;;13.68;100.00
40612;BME280;26317;44.894;20.286;2023-05-19T06:01:06;101294.84;;;13.68;100.00
40612;BME280;26317;44.894;20.286;2023-05-19T06:03:44;101326.91;;;13.85;100.00
40612;BME280;26317;44.894;20.286;2023-05-19T06:06:25;101322.84;;;13.88;100.00
40612;BME280;26317;44.894;20.286;2023-05-19T06:09:07;101314.78;;;13.77;100.00
40612;BME280;26317;44.894;20.286;2023-05-19T06:11:51;101339.53;;;14.00;100.00
40612;BME280;26317;44.894;20.286;2023-05-19T06:14:30;101310.16;;;13.83;100.00
40612;BME280;26317;44.894;20.286;2023-05-19T06:17:27;101328.72;;;14.00;100.00
40612;BME280;26317;44.894;20.286;2023-05-19T06:22:48;101335.50;;;14.02;100.00
40612;BME280;26317;44.894;20.286;2023-05-19T06:25:25;101319.06;;;13.94;100.00
40612;BME280;26317;44.894;20.286;2023-05-19T06:28:09;101327.91;;;14.09;100.00
40612;BME280;26317;44.894;20.286;2023-05-19T06:30:47;101331.94;;;14.12;100.00
40612;BME280;26317;44.894;20.286;2023-05-19T06:33:49;101333.03;;;14.11;100.00
40612;BME280;26317;44.894;20.286;2023-05-19T06:36:25;101295.03;;;13.92;100.00
40612;BME280;26317;44.894;20.286;2023-05-19T06:39:08;101330.31;;;14.16;100.00
40612;BME280;26317;44.894;20.286;2023-05-19T06:41:51;101348.09;;;14.27;100.00
40612;BME280;26317;44.894;20.286;2023-05-19T06:45:11;101335.94;;;14.24;100.00
40612;BME280;26317;44.894;20.286;2023-05-19T06:47:50;101334.81;;;14.41;100.00
40612;BME280;26317;44.894;20.286;2023-05-19T06:50:33;101343.47;;;14.43;100.00
40612;BME280;26317;44.894;20.286;2023-05-19T06:53:19;101345.88;;;14.49;100.00
40612;BME280;26317;44.894;20.286;2023-05-19T06:56:08;101327.78;;;14.45;100.00
40612;BME280;26317;44.894;20.286;2023-05-19T06:58:49;101336.09;;;14.58;100.00
40612;BME280;26317;44.894;20.286;2023-05-19T07:01:29;101347.94;;;14.67;100.00
40612;BME280;26317;44.894;20.286;2023-05-19T07:04:27;101351.16;;;14.69;100.00
40612;BME280;26317;44.894;20.286;2023-05-19T07:07:21;101347.91;;;14.78;100.00
40612;BME280;26317;44.894;20.286;2023-05-19T07:10:00;101352.75;;;14.81;100.00
40612;BME280;26317;44.894;20.286;2023-05-19T07:12:34;101349.44;;;14.89;100.00
40612;BME280;26317;44.894;20.286;2023-05-19T07:15:21;101343.47;;;14.92;100.00
40612;BME280;26317;44.894;20.286;2023-05-19T07:18:08;101349.13;;;14.95;100.00
40612;BME280;26317;44.894;20.286;2023-05-19T07:20:46;101353.44;;;15.01;100.00
40612;BME280;26317;44.894;20.286;2023-05-19T07:23:20;101325.66;;;14.91;100.00
40612;BME280;26317;44.894;20.286;2023-05-19T07:25:56;101269.09;;;14.65;100.00
40612;BME280;26317;44.894;20.286;2023-05-19T07:28:34;101349.25;;;15.19;100.00
40612;BME280;26317;44.894;20.286;2023-05-19T07:31:18;101344.38;;;15.21;100.00
40612;BME280;26317;44.894;20.286;2023-05-19T07:34:01;101346.78;;;15.28;100.00
40612;BME280;26317;44.894;20.286;2023-05-19T07:36:37;101351.50;;;15.41;100.00
40612;BME280;26317;44.894;20.286;2023-05-19T07:39:20;101345.78;;;15.47;100.00
40612;BME280;26317;44.894;20.286;2023-05-19T07:42:07;101322.56;;;15.41;100.00
40612;BME280;26317;44.894;20.286;2023-05-19T07:44:42;101333.34;;;15.51;100.00
40612;BME280;26317;44.894;20.286;2023-05-19T07:47:25;101313.66;;;15.41;100.00
40612;BME280;26317;44.894;20.286;2023-05-19T07:50:06;101329.78;;;15.56;100.00
40612;BME280;26317;44.894;20.286;2023-05-19T07:52:44;101333.81;;;15.58;100.00
40612;BME280;26317;44.894;20.286;2023-05-19T07:55:22;101348.34;;;15.68;100.00
40612;BME280;26317;44.894;20.286;2023-05-19T07:57:58;101335.66;;;15.63;100.00
40612;BME280;26317;44.894;20.286;2023-05-19T08:00:37;101341.53;;;15.70;100.00
40612;BME280;26317;44.894;20.286;2023-05-19T08:03:25;101345.03;;;15.76;100.00
40612;BME280;26317;44.894;20.286;2023-05-19T08:06:00;101364.72;;;15.81;100.00
40612;BME280;26317;44.894;20.286;2023-05-19T08:08:43;101351.47;;;15.80;100.00
40612;BME280;26317;44.894;20.286;2023-05-19T08:11:26;101329.13;;;15.69;100.00
40612;BME280;26317;44.894;20.286;2023-05-19T08:14:08;101351.31;;;15.95;100.00
40612;BME280;26317;44.894;20.286;2023-05-19T08:16:44;101338.91;;;15.94;100.00
40612;BME280;26317;44.894;20.286;2023-05-19T08:19:28;101350.75;;;15.98;100.00
40612;BME280;26317;44.894;20.286;2023-05-19T08:22:04;101354.19;;;16.03;100.00
40612;BME280;26317;44.894;20.286;2023-05-19T08:24:39;101355.81;;;16.04;100.00
40612;BME280;26317;44.894;20.286;2023-05-19T08:27:31;101358.25;;;16.06;100.00
40612;BME280;26317;44.894;20.286;2023-05-19T08:30:13;101350.09;;;16.11;100.00
40612;BME280;26317;44.894;20.286;2023-05-19T08:33:07;101347.38;;;16.11;100.00
40612;BME280;26317;44.894;20.286;2023-05-19T08:35:48;101342.41;;;16.18;100.00
40612;BME280;26317;44.894;20.286;2023-05-19T08:38:26;101339.75;;;16.13;100.00
40612;BME280;26317;44.894;20.286;2023-05-19T08:41:05;101346.88;;;16.04;100.00
40612;BME280;26317;44.894;20.286;2023-05-19T08:43:49;101350.94;;;16.06;100.00
40612;BME280;26317;44.894;20.286;2023-05-19T08:46:25;101333.94;;;16.01;100.00
40612;BME280;26317;44.894;20.286;2023-05-19T08:49:13;101346.56;;;16.10;100.00
40612;BME280;26317;44.894;20.286;2023-05-19T08:52:07;101348.41;;;16.15;100.00
40612;BME280;26317;44.894;20.286;2023-05-19T08:54:52;101340.84;;;16.12;100.00
40612;BME280;26317;44.894;20.286;2023-05-19T08:57:32;101341.56;;;16.23;100.00
40612;BME280;26317;44.894;20.286;2023-05-19T09:00:18;101339.06;;;16.26;100.00
40612;BME280;26317;44.894;20.286;2023-05-19T09:03:08;101313.09;;;16.25;100.00
40612;BME280;26317;44.894;20.286;2023-05-19T09:05:55;101320.41;;;16.48;100.00
40612;BME280;26317;44.894;20.286;2023-05-19T09:08:36;101337.94;;;16.75;100.00
40612;BME280;26317;44.894;20.286;2023-05-19T09:11:24;101309.47;;;16.77;100.00
40612;BME280;26317;44.894;20.286;2023-05-19T09:13:59;101311.28;;;16.82;100.00
40612;BME280;26317;44.894;20.286;2023-05-19T09:16:46;101341.31;;;17.04;100.00
40612;BME280;26317;44.894;20.286;2023-05-19T09:19:26;101336.34;;;17.11;100.00
40612;BME280;26317;44.894;20.286;2023-05-19T09:22:11;101330.66;;;17.08;100.00
40612;BME280;26317;44.894;20.286;2023-05-19T09:24:52;101334.78;;;17.05;100.00
40612;BME280;26317;44.894;20.286;2023-05-19T09:27:37;101329.78;;;17.12;100.00
40612;BME280;26317;44.894;20.286;2023-05-19T09:30:17;101315.13;;;17.13;100.00
40612;BME280;26317;44.894;20.286;2023-05-19T09:32:57;101314.47;;;17.21;100.00
40612;BME280;26317;44.894;20.286;2023-05-19T09:35:36;101318.66;;;17.32;100.00
40612;BME280;26317;44.894;20.286;2023-05-19T09:38:11;101314.59;;;17.30;100.00
40612;BME280;26317;44.894;20.286;2023-05-19T09:40:56;101304.63;;;17.25;100.00
40612;BME280;26317;44.894;20.286;2023-05-19T09:43:38;101316.13;;;17.36;100.00
40612;BME280;26317;44.894;20.286;2023-05-19T09:46:13;101311.88;;;17.30;100.00
40612;BME280;26317;44.894;20.286;2023-05-19T09:48:56;101309.38;;;17.20;100.00
40612;BME280;26317;44.894;20.286;2023-05-19T09:51:44;101288.44;;;17.20;100.00
40612;BME280;26317;44.894;20.286;2023-05-19T09:54:24;101311.13;;;17.43;100.00
40612;BME280;26317;44.894;20.286;2023-05-19T09:57:09;101272.91;;;17.26;100.00
40612;BME280;26317;44.894;20.286;2023-05-19T09:59:48;101305.19;;;17.60;100.00
40612;BME280;26317;44.894;20.286;2023-05-19T10:02:43;101315.16;;;17.78;100.00
40612;BME280;26317;44.894;20.286;2023-05-19T10:05:23;101321.81;;;17.99;100.00
40612;BME280;26317;44.894;20.286;2023-05-19T10:08:14;101314.28;;;18.10;100.00
40612;BME280;26317;44.894;20.286;2023-05-19T10:11:07;101298.19;;;18.27;100.00
40612;BME280;26317;44.894;20.286;2023-05-19T10:13:49;101304.81;;;18.62;100.00
40612;BME280;26317;44.894;20.286;2023-05-19T10:16:27;101302.22;;;18.79;100.00
40612;BME280;26317;44.894;20.286;2023-05-19T10:19:07;101302.47;;;18.91;95.17
40612;BME280;26317;44.894;20.286;2023-05-19T10:21:51;101249.91;;;18.73;97.41
40612;BME280;26317;44.894;20.286;2023-05-19T10:24:23;101293.97;;;19.06;95.83
40612;BME280;26317;44.894;20.286;2023-05-19T10:27:04;101288.59;;;18.93;92.06
40612;BME280;26317;44.894;20.286;2023-05-19T10:30:03;101289.56;;;18.97;97.85
40612;BME280;26317;44.894;20.286;2023-05-19T10:32:46;101290.09;;;18.99;96.97
40612;BME280;26317;44.894;20.286;2023-05-19T10:35:58;101282.28;;;19.06;94.17
40612;BME280;26317;44.894;20.286;2023-05-19T10:38:44;101291.50;;;19.18;92.15
40612;BME280;26317;44.894;20.286;2023-05-19T10:41:27;101267.72;;;19.24;96.20
40612;BME280;26317;44.894;20.286;2023-05-19T10:44:25;101291.13;;;19.56;85.64
40612;BME280;26317;44.894;20.286;2023-05-19T10:47:14;101297.13;;;19.75;91.56
40612;BME280;26317;44.894;20.286;2023-05-19T10:50:03;101286.31;;;19.92;92.17
40612;BME280;26317;44.894;20.286;2023-05-19T10:52:43;101276.25;;;20.01;89.61
40612;BME280;26317;44.894;20.286;2023-05-19T10:55:44;101290.41;;;20.20;89.83
40612;BME280;26317;44.894;20.286;2023-05-19T10:58:37;101299.72;;;20.19;84.66
40612;BME280;26317;44.894;20.286;2023-05-19T11:01:20;101290.53;;;20.07;84.92
40612;BME280;26317;44.894;20.286;2023-05-19T11:04:06;101310.22;;;19.95;81.80
40612;BME280;26317;44.894;20.286;2023-05-19T11:06:52;101274.53;;;19.66;87.00
40612;BME280;26317;44.894;20.286;2023-05-19T11:09:28;101304.53;;;19.74;85.88
40612;BME280;26317;44.894;20.286;2023-05-19T11:12:09;101296.97;;;19.71;84.78
40612;BME280;26317;44.894;20.286;2023-05-19T11:14:48;101297.75;;;19.72;87.97
40612;BME280;26317;44.894;20.286;2023-05-19T11:17:25;101297.13;;;19.75;87.73
40612;BME280;26317;44.894;20.286;2023-05-19T11:20:11;101302.63;;;19.84;89.41
40612;BME280;26317;44.894;20.286;2023-05-19T11:23:13;101263.16;;;20.03;94.95
40612;BME280;26317;44.894;20.286;2023-05-19T11:25:50;101276.31;;;20.18;83.34
40612;BME280;26317;44.894;20.286;2023-05-19T11:28:33;101292.75;;;20.44;85.73
40612;BME280;26317;44.894;20.286;2023-05-19T11:31:11;101281.88;;;20.61;85.54
40612;BME280;26317;44.894;20.286;2023-05-19T11:33:53;101276.88;;;20.72;81.02
40612;BME280;26317;44.894;20.286;2023-05-19T11:36:37;101280.13;;;20.83;79.40
40612;BME280;26317;44.894;20.286;2023-05-19T11:39:31;101278.16;;;21.00;80.00
40612;BME280;26317;44.894;20.286;2023-05-19T11:42:08;101275.13;;;20.93;80.71
40612;BME280;26317;44.894;20.286;2023-05-19T11:45:02;101274.84;;;21.12;76.16
40612;BME280;26317;44.894;20.286;2023-05-19T11:47:56;101266.81;;;21.16;72.78
40612;BME280;26317;44.894;20.286;2023-05-19T11:50:52;101260.69;;;21.19;79.51
40612;BME280;26317;44.894;20.286;2023-05-19T11:53:27;101252.28;;;21.41;78.57
40612;BME280;26317;44.894;20.286;2023-05-19T11:56:06;101252.16;;;21.75;77.80
40612;BME280;26317;44.894;20.286;2023-05-19T11:58:46;101244.66;;;22.01;76.72
40612;BME280;26317;44.894;20.286;2023-05-19T12:01:22;101240.69;;;22.20;75.48
40612;BME280;26317;44.894;20.286;2023-05-19T12:04:13;101236.69;;;22.38;72.69
40612;BME280;26317;44.894;20.286;2023-05-19T12:06:54;101232.72;;;22.56;72.19
40612;BME280;26317;44.894;20.286;2023-05-19T12:09:41;101232.59;;;22.73;71.11
40612;BME280;26317;44.894;20.286;2023-05-19T12:12:20;101224.84;;;22.75;73.09
40612;BME280;26317;44.894;20.286;2023-05-19T12:15:04;101225.53;;;22.72;72.78
40612;BME280;26317;44.894;20.286;2023-05-19T12:17:46;101222.03;;;22.63;69.49
40612;BME280;26317;44.894;20.286;2023-05-19T12:20:21;101219.44;;;22.67;71.83
40612;BME280;26317;44.894;20.286;2023-05-19T12:23:08;101213.75;;;22.92;70.76
40612;BME280;26317;44.894;20.286;2023-05-19T12:25:57;101201.59;;;23.02;64.37
40612;BME280;26317;44.894;20.286;2023-05-19T12:28:36;101195.00;;;23.15;68.37
40612;BME280;26317;44.894;20.286;2023-05-19T12:31:10;101195.50;;;23.29;69.25
40612;BME280;26317;44.894;20.286;2023-05-19T12:33:50;101194.97;;;23.48;68.87
40612;BME280;26317;44.894;20.286;2023-05-19T12:36:24;101188.78;;;23.75;69.66
40612;BME280;26317;44.894;20.286;2023-05-19T12:38:57;101188.09;;;23.91;65.05
40612;BME280;26317;44.894;20.286;2023-05-19T12:41:39;101183.63;;;24.10;66.39
40612;BME280;26317;44.894;20.286;2023-05-19T12:47:12;101167.34;;;24.42;64.25
40612;BME280;26317;44.894;20.286;2023-05-19T12:49:55;101190.88;;;24.70;66.39
40612;BME280;26317;44.894;20.286;2023-05-19T12:52:40;101175.16;;;24.83;62.56
40612;BME280;26317;44.894;20.286;2023-05-19T12:55:21;101172.00;;;24.97;61.03
40612;BME280;26317;44.894;20.286;2023-05-19T12:58:10;101167.97;;;25.06;60.81
40612;BME280;26317;44.894;20.286;2023-05-19T13:00:47;101168.84;;;25.26;63.73
40612;BME280;26317;44.894;20.286;2023-05-19T13:03:27;101173.00;;;25.51;58.53
40612;BME280;26317;44.894;20.286;2023-05-19T13:06:05;101170.16;;;25.48;62.25
40612;BME280;26317;44.894;20.286;2023-05-19T13:08:42;101166.00;;;25.38;56.56
40612;BME280;26317;44.894;20.286;2023-05-19T13:11:24;101146.19;;;25.29;59.80
40612;BME280;26317;44.894;20.286;2023-05-19T13:14:19;101160.00;;;25.33;58.53
40612;BME280;26317;44.894;20.286;2023-05-19T13:16:56;101147.84;;;25.02;60.56
40612;BME280;26317;44.894;20.286;2023-05-19T13:19:37;101150.78;;;24.66;61.33
40612;BME280;26317;44.894;20.286;2023-05-19T13:25:02;101154.28;;;23.99;64.26
40612;BME280;26317;44.894;20.286;2023-05-19T13:27:40;101158.00;;;23.66;62.80
40612;BME280;26317;44.894;20.286;2023-05-19T13:30:20;101129.09;;;23.32;64.90
40612;BME280;26317;44.894;20.286;2023-05-19T13:32:58;101155.56;;;23.28;66.05
40612;BME280;26317;44.894;20.286;2023-05-19T13:35:44;101150.41;;;23.15;64.95
40612;BME280;26317;44.894;20.286;2023-05-19T13:38:22;101166.00;;;23.02;66.92
40612;BME280;26317;44.894;20.286;2023-05-19T13:41:03;101156.56;;;23.00;67.71
40612;BME280;26317;44.894;20.286;2023-05-19T13:43:41;101151.97;;;22.91;68.96
40612;BME280;26317;44.894;20.286;2023-05-19T13:46:22;101155.03;;;22.90;70.59
40612;BME280;26317;44.894;20.286;2023-05-19T13:49:14;101132.41;;;22.69;69.55
40612;BME280;26317;44.894;20.286;2023-05-19T13:52:00;101160.81;;;22.76;69.07
40612;BME280;26317;44.894;20.286;2023-05-19T13:54:46;101151.59;;;22.60;69.61
40612;BME280;26317;44.894;20.286;2023-05-19T13:57:34;101155.59;;;22.63;69.85
40612;BME280;26317;44.894;20.286;2023-05-19T14:00:15;101153.72;;;22.75;69.07
40612;BME280;26317;44.894;20.286;2023-05-19T14:02:55;101163.59;;;23.01;67.10
40612;BME280;26317;44.894;20.286;2023-05-19T14:05:37;101157.00;;;23.02;67.26